Time,TemperatureF,DewpointF,PressureIn,WindDirection,WindDirectionDegrees,WindSpeedMPH,WindSpeedGustMPH,Humidity,HourlyPrecipIn,Conditions,Clouds,dailyrainin,SoftwareType,DateUTC
2013-02-08 00:01:00,59.0,55.0,29.96,NNW,332,0.0,0.0,86,0.00,,,0.00,,2013-02-08 06:01:00,
2013-02-08 00:11:00,59.0,55.0,29.96,NNW,332,0.0,0.0,86,0.00,,,0.00,,2013-02-08 06:11:00,
2013-02-08 00:21:00,60.0,56.0,29.97,NNW,332,0.0,0.0,86,0.00,,,0.00,,2013-02-08 06:21:00,
2013-02-08 00:31:00,60.0,55.0,29.97,NNW,332,0.0,1.0,85,0.00,,,0.00,,2013-02-08 06:31:00,
2013-02-08 00:42:00,60.0,55.0,29.97,NNW,332,0.0,1.0,85,0.00,,,0.00,,2013-02-08 06:42:00,
2013-02-08 00:51:00,62.0,58.0,29.98,NNW,332,0.0,4.0,86,0.00,,,0.00,,2013-02-08 06:51:00,
2013-02-08 01:01:00,63.0,58.0,29.98,NW,321,0.0,6.0,85,0.00,,,0.00,,2013-02-08 07:01:00,
2013-02-08 01:11:00,63.0,58.0,29.98,NW,321,0.0,6.0,85,0.00,,,0.00,,2013-02-08 07:11:00,
2013-02-08 01:21:00,62.0,57.0,29.98,NW,307,1.0,6.0,85,0.00,,,0.00,,2013-02-08 07:21:00,
2013-02-08 01:32:00,62.0,57.0,29.98,WNW,302,2.0,6.0,85,0.00,,,0.00,,2013-02-08 07:32:00,
2013-02-08 01:42:00,62.0,57.0,29.98,WNW,301,1.0,5.0,85,0.00,,,0.00,,2013-02-08 07:42:00,
2013-02-08 01:52:00,62.0,57.0,29.98,WNW,301,1.0,5.0,85,0.00,,,0.00,,2013-02-08 07:52:00,
2013-02-08 02:01:00,62.0,57.0,29.98,WNW,298,0.0,3.0,85,0.00,,,0.00,,2013-02-08 08:01:00,
2013-02-08 02:11:00,62.0,57.0,29.98,WNW,298,0.0,3.0,85,0.00,,,0.00,,2013-02-08 08:11:00,
2013-02-08 02:21:00,62.0,57.0,29.98,WNW,298,0.0,3.0,85,0.00,,,0.00,,2013-02-08 08:21:00,
2013-02-08 02:32:00,62.0,57.0,29.98,WNW,298,0.0,1.0,85,0.00,,,0.00,,2013-02-08 08:32:00,
2013-02-08 02:42:00,62.0,57.0,29.98,WNW,298,0.0,1.0,85,0.00,,,0.00,,2013-02-08 08:42:00,
2013-02-08 02:52:00,62.0,57.0,29.98,WNW,298,0.0,1.0,85,0.00,,,0.00,,2013-02-08 08:52:00,
2013-02-08 03:03:00,62.0,58.0,29.98,WNW,298,0.0,3.0,86,0.00,,,0.00,,2013-02-08 09:03:00,
2013-02-08 03:11:00,62.0,58.0,29.98,WNW,298,0.0,3.0,86,0.00,,,0.00,,2013-02-08 09:11:00,
2013-02-08 03:21:00,62.0,58.0,29.98,WNW,298,0.0,0.0,86,0.00,,,0.00,,2013-02-08 09:21:00,
2013-02-08 03:31:00,62.0,58.0,29.99,WNW,298,0.0,0.0,86,0.00,,,0.00,,2013-02-08 09:31:00,
2013-02-08 03:42:00,62.0,58.0,29.99,WNW,298,0.0,0.0,86,0.00,,,0.00,,2013-02-08 09:42:00,
2013-02-08 03:52:00,62.0,58.0,29.98,WNW,298,0.0,0.0,86,0.00,,,0.00,,2013-02-08 09:52:00,
2013-02-08 04:01:00,62.0,58.0,29.99,WNW,298,0.0,0.0,86,0.00,,,0.00,,2013-02-08 10:01:00,
2013-02-08 04:11:00,62.0,58.0,29.99,WNW,298,0.0,0.0,86,0.00,,,0.00,,2013-02-08 10:11:00,
2013-02-08 04:22:00,62.0,58.0,29.99,WNW,298,0.0,1.0,86,0.00,,,0.00,,2013-02-08 10:22:00,
2013-02-08 04:31:00,63.0,59.0,29.99,WNW,298,0.0,4.0,86,0.00,,,0.00,,2013-02-08 10:31:00,
2013-02-08 04:41:00,63.0,59.0,29.99,WNW,298,0.0,4.0,86,0.00,,,0.00,,2013-02-08 10:41:00,
2013-02-08 04:52:00,63.0,59.0,30.00,WNW,298,0.0,1.0,86,0.00,,,0.00,,2013-02-08 10:52:00,
2013-02-08 05:01:00,63.0,59.0,30.00,WNW,298,0.0,3.0,86,0.00,,,0.00,,2013-02-08 11:01:00,
2013-02-08 05:11:00,63.0,59.0,30.00,WNW,298,0.0,3.0,86,0.00,,,0.00,,2013-02-08 11:11:00,
2013-02-08 05:21:00,63.0,59.0,30.00,WNW,298,0.0,1.0,86,0.00,,,0.00,,2013-02-08 11:21:00,
2013-02-08 05:32:00,62.0,58.0,30.00,WNW,298,0.0,2.0,86,0.00,,,0.00,,2013-02-08 11:32:00,
2013-02-08 05:42:00,62.0,58.0,30.00,WNW,298,0.0,2.0,86,0.00,,,0.00,,2013-02-08 11:42:00,
2013-02-08 05:52:00,62.0,58.0,30.00,WNW,298,0.0,0.0,86,0.00,,,0.00,,2013-02-08 11:52:00,
2013-02-08 06:01:00,62.0,58.0,30.01,WNW,298,1.0,6.0,86,0.00,,,0.00,,2013-02-08 12:01:00,
2013-02-08 06:11:00,62.0,58.0,30.01,WNW,298,1.0,6.0,86,0.00,,,0.00,,2013-02-08 12:11:00,
2013-02-08 06:22:00,62.0,58.0,30.02,NW,316,4.0,9.0,86,0.00,,,0.00,,2013-02-08 12:22:00,
2013-02-08 06:33:00,62.0,57.0,30.03,North,355,2.0,8.0,85,0.00,,,0.00,,2013-02-08 12:33:00,
2013-02-08 06:42:00,62.0,57.0,30.03,North,355,2.0,8.0,85,0.00,,,0.00,,2013-02-08 12:42:00,
2013-02-08 06:52:00,61.0,56.0,30.03,NNW,344,0.0,5.0,85,0.00,,,0.00,,2013-02-08 12:52:00,
2013-02-08 07:01:00,61.0,56.0,30.04,NNW,348,0.0,5.0,85,0.00,,,0.00,,2013-02-08 13:01:00,
2013-02-08 07:11:00,61.0,56.0,30.04,NNW,348,0.0,5.0,85,0.00,,,0.00,,2013-02-08 13:11:00,
2013-02-08 07:22:00,61.0,56.0,30.05,NNW,345,1.0,5.0,85,0.00,,,0.00,,2013-02-08 13:22:00,
2013-02-08 07:32:00,61.0,56.0,30.06,NNW,334,5.0,10.0,85,0.00,,,0.00,,2013-02-08 13:32:00,
2013-02-08 07:42:00,61.0,56.0,30.06,NNW,334,5.0,10.0,85,0.00,,,0.00,,2013-02-08 13:42:00,
2013-02-08 07:52:00,61.0,57.0,30.07,NNW,335,5.0,9.0,87,0.00,,,0.00,,2013-02-08 13:52:00,
2013-02-08 08:02:00,61.0,57.0,30.08,NNW,337,2.0,6.0,88,0.00,,,0.00,,2013-02-08 14:02:00,
2013-02-08 08:11:00,61.0,57.0,30.08,NNW,337,2.0,6.0,88,0.00,,,0.00,,2013-02-08 14:11:00,
2013-02-08 08:21:00,61.0,58.0,30.08,ESE,116,2.0,5.0,89,0.00,,,0.00,,2013-02-08 14:21:00,
2013-02-08 08:32:00,61.0,58.0,30.09,NNW,328,0.0,3.0,90,0.00,,,0.00,,2013-02-08 14:32:00,
2013-02-08 08:42:00,61.0,58.0,30.09,NNW,328,0.0,3.0,90,0.00,,,0.00,,2013-02-08 14:42:00,
2013-02-08 08:52:00,61.0,58.0,30.10,NNW,330,0.0,5.0,90,0.00,,,0.00,,2013-02-08 14:52:00,
2013-02-08 09:02:00,61.0,58.0,30.10,NW,322,3.0,11.0,89,0.00,,,0.00,,2013-02-08 15:02:00,
2013-02-08 09:11:00,61.0,58.0,30.10,NW,322,3.0,11.0,89,0.00,,,0.00,,2013-02-08 15:11:00,
2013-02-08 09:22:00,62.0,59.0,30.11,NNW,335,3.0,9.0,89,0.00,,,0.00,,2013-02-08 15:22:00,
2013-02-08 09:32:00,62.0,58.0,30.11,NW,322,5.0,11.0,87,0.00,,,0.00,,2013-02-08 15:32:00,
2013-02-08 09:42:00,62.0,58.0,30.11,NW,322,5.0,11.0,87,0.00,,,0.00,,2013-02-08 15:42:00,
2013-02-08 09:52:00,62.0,58.0,30.12,North,351,4.0,9.0,87,0.00,,,0.00,,2013-02-08 15:52:00,
2013-02-08 10:01:00,62.0,58.0,30.13,North,350,4.0,10.0,87,0.00,,,0.00,,2013-02-08 16:01:00,
2013-02-08 10:11:00,62.0,58.0,30.13,North,350,4.0,10.0,87,0.00,,,0.00,,2013-02-08 16:11:00,
2013-02-08 10:22:00,62.0,58.0,30.13,NW,314,4.0,11.0,87,0.00,,,0.00,,2013-02-08 16:22:00,
2013-02-08 10:32:00,63.0,59.0,30.13,NNW,338,5.0,9.0,86,0.00,,,0.00,,2013-02-08 16:32:00,
2013-02-08 10:42:00,63.0,59.0,30.13,NNW,338,5.0,9.0,86,0.00,,,0.00,,2013-02-08 16:42:00,
2013-02-08 10:52:00,64.0,59.0,30.14,NNE,25,4.0,10.0,84,0.00,,,0.00,,2013-02-08 16:52:00,
2013-02-08 11:03:00,65.0,59.0,30.14,NNE,15,4.0,10.0,82,0.00,,,0.00,,2013-02-08 17:03:00,
2013-02-08 11:12:00,65.0,59.0,30.14,NNE,15,4.0,10.0,82,0.00,,,0.00,,2013-02-08 17:12:00,
2013-02-08 11:22:00,65.0,58.0,30.14,NNW,339,9.0,14.0,79,0.00,,,0.00,,2013-02-08 17:22:00,
2013-02-08 11:32:00,65.0,59.0,30.14,NNE,15,5.0,12.0,80,0.00,,,0.00,,2013-02-08 17:32:00,
2013-02-08 11:42:00,65.0,59.0,30.14,NNE,15,5.0,12.0,80,0.00,,,0.00,,2013-02-08 17:42:00,
2013-02-08 11:53:00,65.0,59.0,30.14,NNE,19,5.0,11.0,80,0.00,,,0.00,,2013-02-08 17:53:00,
2013-02-08 12:02:00,65.0,59.0,30.14,North,5,4.0,8.0,81,0.00,,,0.00,,2013-02-08 18:02:00,
2013-02-08 12:12:00,65.0,59.0,30.14,North,5,4.0,8.0,81,0.00,,,0.00,,2013-02-08 18:12:00,
2013-02-08 12:24:00,66.0,59.0,30.13,NNW,329,4.0,9.0,79,0.00,,,0.00,,2013-02-08 18:24:00,
2013-02-08 12:34:00,66.0,59.0,30.12,North,355,3.0,7.0,79,0.00,,,0.00,,2013-02-08 18:34:00,
2013-02-08 12:43:00,66.0,59.0,30.12,North,355,3.0,7.0,79,0.00,,,0.00,,2013-02-08 18:43:00,
2013-02-08 12:52:00,66.0,59.0,30.12,North,360,4.0,7.0,79,0.00,,,0.00,,2013-02-08 18:52:00,
2013-02-08 13:02:00,68.0,59.0,30.11,NE,40,3.0,8.0,74,0.00,,,0.00,,2013-02-08 19:02:00,
2013-02-08 13:11:00,68.0,59.0,30.11,NE,40,3.0,8.0,74,0.00,,,0.00,,2013-02-08 19:11:00,
2013-02-08 13:22:00,67.0,59.0,30.11,NNE,24,1.0,6.0,75,0.00,,,0.00,,2013-02-08 19:22:00,
2013-02-08 13:32:00,67.0,59.0,30.11,NNE,20,3.0,7.0,76,0.00,,,0.00,,2013-02-08 19:32:00,
2013-02-08 13:42:00,67.0,59.0,30.11,NNE,20,3.0,7.0,76,0.00,,,0.00,,2013-02-08 19:42:00,
2013-02-08 13:52:00,67.0,60.0,30.11,NNW,345,4.0,10.0,77,0.00,,,0.00,,2013-02-08 19:52:00,
2013-02-08 14:02:00,67.0,60.0,30.10,North,355,2.0,7.0,77,0.00,,,0.00,,2013-02-08 20:02:00,
2013-02-08 14:11:00,67.0,60.0,30.10,North,355,2.0,7.0,77,0.00,,,0.00,,2013-02-08 20:11:00,
2013-02-08 14:22:00,68.0,60.0,30.10,NNE,15,5.0,11.0,75,0.00,,,0.00,,2013-02-08 20:22:00,
2013-02-08 14:32:00,69.0,60.0,30.10,NNE,33,6.0,9.0,73,0.00,,,0.00,,2013-02-08 20:32:00,
2013-02-08 14:42:00,69.0,60.0,30.10,NNE,33,6.0,9.0,73,0.00,,,0.00,,2013-02-08 20:42:00,
2013-02-08 14:52:00,69.0,60.0,30.10,North,5,5.0,13.0,72,0.00,,,0.00,,2013-02-08 20:52:00,
2013-02-08 15:02:00,69.0,60.0,30.09,NNE,17,6.0,10.0,72,0.00,,,0.00,,2013-02-08 21:02:00,
2013-02-08 15:11:00,69.0,60.0,30.09,NNE,17,6.0,10.0,72,0.00,,,0.00,,2013-02-08 21:11:00,
2013-02-08 15:22:00,69.0,59.0,30.10,NNE,19,4.0,10.0,71,0.00,,,0.00,,2013-02-08 21:22:00,
2013-02-08 15:32:00,68.0,59.0,30.10,NNE,22,4.0,7.0,73,0.00,,,0.00,,2013-02-08 21:32:00,
2013-02-08 15:42:00,68.0,59.0,30.10,NNE,22,4.0,7.0,73,0.00,,,0.00,,2013-02-08 21:42:00,
2013-02-08 15:52:00,68.0,59.0,30.10,NE,35,5.0,10.0,74,0.00,,,0.00,,2013-02-08 21:52:00,
2013-02-08 16:01:00,67.0,58.0,30.10,North,360,5.0,9.0,72,0.00,,,0.00,,2013-02-08 22:01:00,
2013-02-08 16:11:00,67.0,58.0,30.10,North,360,5.0,9.0,72,0.00,,,0.00,,2013-02-08 22:11:00,
2013-02-08 16:22:00,66.0,58.0,30.11,North,360,5.0,10.0,75,0.00,,,0.00,,2013-02-08 22:22:00,
2013-02-08 16:32:00,66.0,58.0,30.10,NNE,26,6.0,10.0,75,0.00,,,0.00,,2013-02-08 22:32:00,
2013-02-08 16:42:00,66.0,58.0,30.10,NNE,26,6.0,10.0,75,0.00,,,0.00,,2013-02-08 22:42:00,
2013-02-08 16:52:00,66.0,59.0,30.11,North,5,2.0,11.0,77,0.00,,,0.00,,2013-02-08 22:52:00,
2013-02-08 17:01:00,65.0,58.0,30.11,North,5,4.0,9.0,77,0.00,,,0.00,,2013-02-08 23:01:00,
2013-02-08 17:11:00,65.0,58.0,30.11,North,5,4.0,9.0,77,0.00,,,0.00,,2013-02-08 23:11:00,
2013-02-08 17:21:00,65.0,58.0,30.11,North,5,3.0,6.0,78,0.00,,,0.00,,2013-02-08 23:21:00,
2013-02-08 17:31:00,65.0,58.0,30.11,NNE,14,5.0,7.0,78,0.00,,,0.00,,2013-02-08 23:31:00,
2013-02-08 17:42:00,65.0,58.0,30.11,NNE,14,5.0,7.0,78,0.00,,,0.00,,2013-02-08 23:42:00,
2013-02-08 17:52:00,64.0,58.0,30.12,NNE,28,3.0,9.0,80,0.00,,,0.00,,2013-02-08 23:52:00,
2013-02-08 18:02:00,62.0,56.0,30.12,NE,44,4.0,10.0,81,0.00,,,0.00,,2013-02-09 00:02:00,
2013-02-08 18:11:00,62.0,56.0,30.12,NE,44,4.0,10.0,81,0.00,,,0.00,,2013-02-09 00:11:00,
2013-02-08 18:21:00,61.0,56.0,30.12,NNE,30,4.0,9.0,84,0.00,,,0.00,,2013-02-09 00:21:00,
2013-02-08 18:32:00,60.0,56.0,30.12,NNE,25,6.0,10.0,86,0.00,,,0.00,,2013-02-09 00:32:00,
2013-02-08 18:42:00,60.0,56.0,30.12,NNE,25,6.0,10.0,86,0.00,,,0.00,,2013-02-09 00:42:00,
2013-02-08 18:52:00,59.0,55.0,30.13,NNE,28,4.0,11.0,87,0.00,,,0.00,,2013-02-09 00:52:00,
2013-02-08 19:01:00,59.0,55.0,30.14,NE,38,4.0,12.0,88,0.00,,,0.00,,2013-02-09 01:01:00,
2013-02-08 19:11:00,59.0,55.0,30.14,NE,38,4.0,12.0,88,0.00,,,0.00,,2013-02-09 01:11:00,
2013-02-08 19:21:00,58.0,54.0,30.14,NE,36,2.0,6.0,88,0.00,,,0.00,,2013-02-09 01:21:00,
2013-02-08 19:32:00,58.0,54.0,30.15,NNE,28,1.0,7.0,88,0.00,,,0.00,,2013-02-09 01:32:00,
2013-02-08 19:41:00,58.0,54.0,30.15,NNE,28,1.0,7.0,88,0.00,,,0.00,,2013-02-09 01:41:00,
2013-02-08 19:52:00,58.0,55.0,30.15,NNE,24,2.0,6.0,89,0.00,,,0.00,,2013-02-09 01:52:00,
2013-02-08 20:01:00,58.0,55.0,30.15,NNE,29,0.0,7.0,89,0.00,,,0.00,,2013-02-09 02:01:00,
2013-02-08 20:11:00,58.0,55.0,30.15,NNE,29,0.0,7.0,89,0.00,,,0.00,,2013-02-09 02:11:00,
2013-02-08 20:21:00,57.0,54.0,30.15,NNE,27,3.0,7.0,89,0.00,,,0.00,,2013-02-09 02:21:00,
2013-02-08 20:32:00,57.0,54.0,30.15,NNE,24,3.0,8.0,89,0.00,,,0.00,,2013-02-09 02:32:00,
2013-02-08 20:42:00,57.0,54.0,30.15,NNE,24,3.0,8.0,89,0.00,,,0.00,,2013-02-09 02:42:00,
2013-02-08 20:52:00,56.0,53.0,30.15,NNE,31,2.0,5.0,89,0.00,,,0.00,,2013-02-09 02:52:00,
2013-02-08 21:01:00,56.0,53.0,30.14,NNE,30,1.0,7.0,90,0.00,,,0.00,,2013-02-09 03:01:00,
2013-02-08 21:11:00,56.0,53.0,30.14,NNE,30,1.0,7.0,90,0.00,,,0.00,,2013-02-09 03:11:00,
2013-02-08 21:21:00,55.0,52.0,30.15,NNE,28,1.0,7.0,89,0.00,,,0.00,,2013-02-09 03:21:00,
2013-02-08 21:32:00,55.0,52.0,30.16,NNE,31,0.0,5.0,90,0.00,,,0.00,,2013-02-09 03:32:00,
2013-02-08 21:42:00,55.0,52.0,30.16,NNE,31,0.0,5.0,90,0.00,,,0.00,,2013-02-09 03:42:00,
2013-02-08 21:53:00,54.0,51.0,30.16,NNE,31,0.0,0.0,90,0.00,,,0.00,,2013-02-09 03:53:00,
2013-02-08 22:02:00,53.0,50.0,30.16,NNE,31,0.0,0.0,90,0.00,,,0.00,,2013-02-09 04:02:00,
2013-02-08 22:12:00,52.0,49.0,30.16,NNE,31,0.0,0.0,90,0.00,,,0.00,,2013-02-09 04:12:00,
2013-02-08 22:23:00,52.0,49.0,30.16,NNE,31,0.0,0.0,90,0.00,,,0.00,,2013-02-09 04:23:00,
2013-02-08 22:32:00,51.0,48.0,30.16,NNE,31,0.0,0.0,90,0.00,,,0.00,,2013-02-09 04:32:00,
2013-02-08 22:42:00,51.0,48.0,30.16,NNE,31,0.0,0.0,90,0.00,,,0.00,,2013-02-09 04:42:00,
2013-02-08 22:52:00,51.0,48.0,30.15,NNE,31,0.0,0.0,90,0.00,,,0.00,,2013-02-09 04:52:00,
2013-02-08 23:02:00,50.0,47.0,30.15,NNE,31,0.0,0.0,90,0.00,,,0.00,,2013-02-09 05:02:00,
2013-02-08 23:12:00,50.0,47.0,30.15,NNE,31,0.0,0.0,90,0.00,,,0.00,,2013-02-09 05:12:00,
2013-02-08 23:22:00,50.0,47.0,30.14,NNE,31,0.0,0.0,89,0.00,,,0.00,,2013-02-09 05:22:00,
2013-02-08 23:31:00,50.0,47.0,30.14,NNE,31,0.0,0.0,88,0.00,,,0.00,,2013-02-09 05:31:00,
2013-02-08 23:42:00,50.0,47.0,30.14,NNE,31,0.0,0.0,88,0.00,,,0.00,,2013-02-09 05:42:00,
2013-02-08 23:52:00,50.0,47.0,30.14,NNE,31,0.0,2.0,88,0.00,,,0.00,,2013-02-09 05:52:00,